EXS804 LEBL-EGCC
Flight info
| Callsign | EXS804 |
|---|---|
| Flight time | N/A |
| Altitude | 34000 |
| Route | NATPI DCT EVNAM DCT TUPAR UN861 ANG DCT AKIKI UN867 AVANT UM184 HEMEL T420 ELVOS |
| Aircraft | A21N/M-SDE2E3FGHIRWXY/LB1 |
Departure
| Time | N/A |
|---|---|
| Airport | Josep Tarradellas Barcelona-El Prat Airport (LEBL) |
Arrival
| Time | 2026-05-04 20:36 |
|---|---|
| Airport | Manchester Airport (EGCC) |
| Time | Latitude | Longitude | Altitude | Speed | Heading |
|---|---|---|---|---|---|
| 2026-05-04 19:13 | 46.16390 | -0.48799 | 33924 ft | 472 kts | 333° |
| 2026-05-04 19:14 | 46.22388 | -0.52721 | 33934 ft | 473 kts | 333° |
| 2026-05-04 19:14 | 46.28390 | -0.56671 | 33941 ft | 474 kts | 333° |
| 2026-05-04 19:15 | 46.34407 | -0.60648 | 33936 ft | 474 kts | 333° |
| 2026-05-04 19:15 | 46.40369 | -0.64595 | 33955 ft | 474 kts | 334° |
| 2026-05-04 19:15 | 46.43486 | -0.66219 | 33939 ft | 477 kts | 345° |
| 2026-05-04 19:16 | 46.46763 | -0.67030 | 33945 ft | 478 kts | 352° |
| 2026-05-04 19:16 | 46.53382 | -0.68079 | 33963 ft | 478 kts | 353° |
| 2026-05-04 19:17 | 46.60004 | -0.69154 | 33952 ft | 479 kts | 353° |
| 2026-05-04 19:17 | 46.66596 | -0.70303 | 33970 ft | 480 kts | 352° |
| 2026-05-04 19:18 | 46.73269 | -0.71458 | 33967 ft | 480 kts | 353° |
| 2026-05-04 19:18 | 46.79861 | -0.72581 | 33950 ft | 480 kts | 353° |
| 2026-05-04 19:19 | 46.86499 | -0.73702 | 33948 ft | 480 kts | 353° |
| 2026-05-04 19:19 | 46.93131 | -0.74836 | 33968 ft | 480 kts | 353° |
| 2026-05-04 19:20 | 46.99771 | -0.75979 | 33946 ft | 480 kts | 353° |
| 2026-05-04 19:20 | 47.06433 | -0.77066 | 33946 ft | 481 kts | 353° |
| 2026-05-04 19:21 | 47.13050 | -0.78161 | 33946 ft | 480 kts | 353° |
| 2026-05-04 19:21 | 47.19708 | -0.79303 | 33944 ft | 480 kts | 352° |
| 2026-05-04 19:22 | 47.26356 | -0.80458 | 33938 ft | 480 kts | 353° |
| 2026-05-04 19:22 | 47.32966 | -0.81601 | 33939 ft | 480 kts | 352° |
| 2026-05-04 19:23 | 47.39604 | -0.82806 | 33940 ft | 480 kts | 352° |
| 2026-05-04 19:23 | 47.46244 | -0.83986 | 33948 ft | 480 kts | 353° |
| 2026-05-04 19:24 | 47.52844 | -0.85079 | 33936 ft | 479 kts | 352° |
| 2026-05-04 19:24 | 47.59430 | -0.86707 | 33934 ft | 479 kts | 349° |
| 2026-05-04 19:25 | 47.65999 | -0.88450 | 33936 ft | 479 kts | 349° |
| 2026-05-04 19:25 | 47.72537 | -0.90190 | 33936 ft | 479 kts | 349° |
| 2026-05-04 19:26 | 47.79119 | -0.91948 | 33938 ft | 479 kts | 348° |
| 2026-05-04 19:26 | 47.85675 | -0.93728 | 33935 ft | 478 kts | 349° |
| 2026-05-04 19:27 | 47.92196 | -0.95478 | 33943 ft | 478 kts | 349° |
| 2026-05-04 19:27 | 47.98757 | -0.97246 | 33950 ft | 478 kts | 348° |
| 2026-05-04 19:28 | 48.05271 | -0.99005 | 33949 ft | 477 kts | 349° |
| 2026-05-04 19:28 | 48.11814 | -1.00779 | 33949 ft | 477 kts | 349° |
| 2026-05-04 19:29 | 48.18324 | -1.02534 | 33959 ft | 477 kts | 349° |
| 2026-05-04 19:29 | 48.24867 | -1.04299 | 33961 ft | 476 kts | 349° |
| 2026-05-04 19:30 | 48.31394 | -1.06063 | 33965 ft | 476 kts | 349° |
| 2026-05-04 19:30 | 48.37875 | -1.07853 | 33965 ft | 476 kts | 348° |
| 2026-05-04 19:31 | 48.44398 | -1.09641 | 33967 ft | 476 kts | 348° |
| 2026-05-04 19:31 | 48.50909 | -1.11423 | 33973 ft | 475 kts | 348° |
| 2026-05-04 19:32 | 48.57390 | -1.13205 | 33978 ft | 475 kts | 348° |
| 2026-05-04 19:32 | 48.63907 | -1.15010 | 33977 ft | 475 kts | 348° |
| 2026-05-04 19:33 | 48.70388 | -1.16793 | 33976 ft | 474 kts | 348° |
| 2026-05-04 19:33 | 48.76910 | -1.18573 | 33982 ft | 474 kts | 348° |
| 2026-05-04 19:34 | 48.83401 | -1.20381 | 33985 ft | 474 kts | 349° |
| 2026-05-04 19:34 | 48.89863 | -1.22161 | 33985 ft | 474 kts | 348° |
| 2026-05-04 19:35 | 48.96361 | -1.23958 | 33984 ft | 474 kts | 348° |
| 2026-05-04 19:35 | 49.02854 | -1.25804 | 33985 ft | 474 kts | 348° |
| 2026-05-04 19:36 | 49.09341 | -1.27622 | 33989 ft | 473 kts | 348° |
| 2026-05-04 19:36 | 49.15775 | -1.29423 | 33990 ft | 472 kts | 348° |
| 2026-05-04 19:37 | 49.22243 | -1.31247 | 33994 ft | 472 kts | 348° |
| 2026-05-04 19:37 | 49.28718 | -1.33076 | 33995 ft | 472 kts | 348° |
| 2026-05-04 19:38 | 49.34089 | -1.34586 | 33999 ft | 469 kts | 349° |
| 2026-05-04 19:38 | 49.41568 | -1.36703 | 33995 ft | 469 kts | 348° |
| 2026-05-04 19:39 | 49.46905 | -1.38226 | 33998 ft | 469 kts | 348° |
| 2026-05-04 19:39 | 49.53348 | -1.40070 | 33993 ft | 468 kts | 348° |
| 2026-05-04 19:40 | 49.59741 | -1.41554 | 33988 ft | 467 kts | 358° |
| 2026-05-04 19:40 | 49.66245 | -1.41131 | 33997 ft | 467 kts | 4° |
| 2026-05-04 19:41 | 49.72754 | -1.40519 | 33995 ft | 467 kts | 4° |
| 2026-05-04 19:41 | 49.79182 | -1.39936 | 33994 ft | 462 kts | 3° |
| 2026-05-04 19:42 | 49.85581 | -1.39361 | 33996 ft | 462 kts | 3° |
| 2026-05-04 19:42 | 49.92048 | -1.38786 | 33999 ft | 462 kts | 3° |
| 2026-05-04 19:43 | 49.98479 | -1.38214 | 33997 ft | 460 kts | 4° |
| 2026-05-04 19:43 | 50.04741 | -1.36907 | 34000 ft | 456 kts | 9° |
| 2026-05-04 19:44 | 50.11084 | -1.35297 | 34004 ft | 463 kts | 9° |
| 2026-05-04 19:44 | 50.17431 | -1.33712 | 34001 ft | 464 kts | 9° |
| 2026-05-04 19:45 | 50.23793 | -1.32144 | 34015 ft | 460 kts | 9° |
| 2026-05-04 19:45 | 50.30120 | -1.30566 | 34022 ft | 460 kts | 9° |
| 2026-05-04 19:46 | 50.36452 | -1.28976 | 34004 ft | 460 kts | 9° |
| 2026-05-04 19:46 | 50.42739 | -1.27395 | 34012 ft | 458 kts | 9° |
| 2026-05-04 19:47 | 50.48982 | -1.25620 | 34005 ft | 454 kts | 17° |
| 2026-05-04 19:47 | 50.51889 | -1.23843 | 34003 ft | 453 kts | 28° |
| 2026-05-04 19:47 | 50.54602 | -1.21326 | 34005 ft | 452 kts | 33° |
| 2026-05-04 19:48 | 50.59901 | -1.15974 | 34020 ft | 452 kts | 34° |
| 2026-05-04 19:48 | 50.65228 | -1.10640 | 34003 ft | 452 kts | 34° |
| 2026-05-04 19:49 | 50.70502 | -1.05372 | 34016 ft | 450 kts | 33° |
| 2026-05-04 19:49 | 50.75792 | -1.00084 | 34012 ft | 449 kts | 34° |
| 2026-05-04 19:50 | 50.81094 | -0.94839 | 34038 ft | 450 kts | 30° |
| 2026-05-04 19:50 | 50.83953 | -0.92810 | 34013 ft | 451 kts | 19° |
| 2026-05-04 19:50 | 50.86897 | -0.91247 | 34024 ft | 452 kts | 18° |
| 2026-05-04 19:51 | 50.92845 | -0.88237 | 34027 ft | 446 kts | 18° |
| 2026-05-04 19:51 | 50.98763 | -0.85191 | 34040 ft | 446 kts | 18° |
| 2026-05-04 19:52 | 51.04653 | -0.82124 | 34055 ft | 446 kts | 18° |
| 2026-05-04 19:52 | 51.10566 | -0.79049 | 34046 ft | 446 kts | 18° |
| 2026-05-04 19:53 | 51.16476 | -0.75964 | 34039 ft | 446 kts | 18° |
| 2026-05-04 19:53 | 51.22351 | -0.72884 | 34042 ft | 446 kts | 18° |
| 2026-05-04 19:54 | 51.28265 | -0.69783 | 34057 ft | 446 kts | 18° |
| 2026-05-04 19:54 | 51.34161 | -0.66677 | 34061 ft | 446 kts | 18° |
| 2026-05-04 19:55 | 51.40080 | -0.63552 | 34051 ft | 449 kts | 18° |
| 2026-05-04 19:55 | 51.46009 | -0.60414 | 34040 ft | 449 kts | 18° |
| 2026-05-04 19:56 | 51.51905 | -0.57287 | 34046 ft | 449 kts | 18° |
| 2026-05-04 19:56 | 51.57846 | -0.54125 | 34051 ft | 449 kts | 18° |
| 2026-05-04 19:57 | 51.63778 | -0.50960 | 34047 ft | 451 kts | 18° |
| 2026-05-04 19:57 | 51.69751 | -0.47763 | 34092 ft | 450 kts | 18° |
| 2026-05-04 19:58 | 51.75696 | -0.44789 | 34097 ft | 449 kts | 11° |
| 2026-05-04 19:58 | 51.78704 | -0.44245 | 34091 ft | 448 kts | 359° |
| 2026-05-04 19:58 | 51.81899 | -0.44732 | 34085 ft | 447 kts | 346° |
| 2026-05-04 19:58 | 51.84851 | -0.46238 | 34078 ft | 444 kts | 334° |
| 2026-05-04 19:59 | 51.87569 | -0.48596 | 34077 ft | 442 kts | 327° |
| 2026-05-04 19:59 | 51.92810 | -0.53808 | 34073 ft | 442 kts | 326° |
| 2026-05-04 20:00 | 51.98048 | -0.58975 | 34065 ft | 442 kts | 327° |
| 2026-05-04 20:00 | 52.03332 | -0.64147 | 34058 ft | 443 kts | 327° |
| 2026-05-04 20:01 | 52.08601 | -0.69317 | 34059 ft | 441 kts | 327° |
| 2026-05-04 20:01 | 52.11222 | -0.71894 | 33953 ft | 435 kts | 327° |
| 2026-05-04 20:01 | 52.13782 | -0.74422 | 32998 ft | 439 kts | 327° |
| 2026-05-04 20:01 | 52.16433 | -0.77040 | 32256 ft | 439 kts | 327° |
| 2026-05-04 20:02 | 52.19009 | -0.79581 | 31671 ft | 435 kts | 326° |
| 2026-05-04 20:02 | 52.21584 | -0.82129 | 31107 ft | 430 kts | 326° |
| 2026-05-04 20:02 | 52.24134 | -0.84654 | 30570 ft | 426 kts | 326° |
| 2026-05-04 20:02 | 52.26659 | -0.87165 | 30025 ft | 422 kts | 326° |
| 2026-05-04 20:03 | 52.29124 | -0.89619 | 29422 ft | 418 kts | 326° |
| 2026-05-04 20:03 | 52.31588 | -0.92068 | 28906 ft | 411 kts | 326° |
| 2026-05-04 20:03 | 52.34021 | -0.94495 | 28276 ft | 408 kts | 326° |
| 2026-05-04 20:03 | 52.36436 | -0.96910 | 27688 ft | 405 kts | 326° |
| 2026-05-04 20:04 | 52.38836 | -0.99309 | 27126 ft | 401 kts | 326° |
| 2026-05-04 20:04 | 52.41189 | -1.01658 | 26546 ft | 398 kts | 326° |
| 2026-05-04 20:04 | 52.43558 | -1.04027 | 25964 ft | 396 kts | 326° |
| 2026-05-04 20:04 | 52.45901 | -1.06373 | 25424 ft | 392 kts | 325° |
| 2026-05-04 20:05 | 52.48226 | -1.08703 | 24904 ft | 389 kts | 325° |
| 2026-05-04 20:05 | 52.50526 | -1.11013 | 24388 ft | 386 kts | 325° |
| 2026-05-04 20:05 | 52.52808 | -1.13306 | 23913 ft | 382 kts | 324° |
| 2026-05-04 20:05 | 52.55049 | -1.15562 | 23436 ft | 374 kts | 324° |
| 2026-05-04 20:06 | 52.57226 | -1.17756 | 22852 ft | 368 kts | 324° |
| 2026-05-04 20:06 | 52.59398 | -1.19949 | 22315 ft | 362 kts | 324° |
| 2026-05-04 20:06 | 52.61531 | -1.22103 | 21807 ft | 355 kts | 324° |
| 2026-05-04 20:06 | 52.63623 | -1.24219 | 21345 ft | 351 kts | 324° |
| 2026-05-04 20:07 | 52.65695 | -1.26314 | 20895 ft | 347 kts | 324° |
| 2026-05-04 20:07 | 52.67738 | -1.28384 | 20471 ft | 343 kts | 325° |
| 2026-05-04 20:07 | 52.69745 | -1.30421 | 20072 ft | 341 kts | 325° |
| 2026-05-04 20:07 | 52.71761 | -1.32473 | 19541 ft | 342 kts | 325° |
| 2026-05-04 20:08 | 52.73811 | -1.34564 | 18811 ft | 350 kts | 326° |
| 2026-05-04 20:08 | 52.75882 | -1.36677 | 18165 ft | 349 kts | 326° |
| 2026-05-04 20:08 | 52.77936 | -1.38773 | 17571 ft | 345 kts | 326° |
| 2026-05-04 20:08 | 52.79955 | -1.40834 | 17103 ft | 337 kts | 326° |
| 2026-05-04 20:09 | 52.81934 | -1.42854 | 16696 ft | 329 kts | 326° |
| 2026-05-04 20:09 | 52.83832 | -1.44795 | 16352 ft | 320 kts | 326° |
| 2026-05-04 20:09 | 52.85705 | -1.46715 | 16023 ft | 314 kts | 326° |
| 2026-05-04 20:09 | 52.87563 | -1.48622 | 15697 ft | 313 kts | 326° |
| 2026-05-04 20:10 | 52.89417 | -1.50526 | 15359 ft | 312 kts | 326° |
| 2026-05-04 20:10 | 52.91245 | -1.52406 | 15036 ft | 312 kts | 327° |
| 2026-05-04 20:10 | 52.93092 | -1.54305 | 14687 ft | 313 kts | 327° |
| 2026-05-04 20:10 | 52.94946 | -1.56217 | 14348 ft | 313 kts | 327° |
| 2026-05-04 20:11 | 52.96795 | -1.58124 | 14012 ft | 313 kts | 327° |
| 2026-05-04 20:11 | 52.98626 | -1.60014 | 13656 ft | 313 kts | 327° |
| 2026-05-04 20:11 | 53.00481 | -1.61931 | 13283 ft | 313 kts | 327° |
| 2026-05-04 20:11 | 53.02333 | -1.63845 | 12941 ft | 313 kts | 327° |
| 2026-05-04 20:12 | 53.04182 | -1.65758 | 12604 ft | 312 kts | 326° |
| 2026-05-04 20:12 | 53.05897 | -1.67943 | 12257 ft | 309 kts | 313° |
| 2026-05-04 20:12 | 53.07307 | -1.70577 | 11927 ft | 308 kts | 309° |
| 2026-05-04 20:12 | 53.08695 | -1.73309 | 11586 ft | 308 kts | 309° |
| 2026-05-04 20:13 | 53.10074 | -1.76021 | 11243 ft | 305 kts | 309° |
| 2026-05-04 20:13 | 53.11438 | -1.78701 | 10906 ft | 301 kts | 309° |
| 2026-05-04 20:13 | 53.12767 | -1.81313 | 10582 ft | 296 kts | 309° |
| 2026-05-04 20:13 | 53.14094 | -1.83911 | 10263 ft | 291 kts | 310° |
| 2026-05-04 20:14 | 53.15403 | -1.86467 | 9959 ft | 287 kts | 310° |
| 2026-05-04 20:14 | 53.16693 | -1.88986 | 9621 ft | 283 kts | 310° |
| 2026-05-04 20:14 | 53.17946 | -1.91430 | 9285 ft | 279 kts | 310° |
| 2026-05-04 20:14 | 53.19209 | -1.93895 | 8963 ft | 279 kts | 310° |
| 2026-05-04 20:15 | 53.20473 | -1.96362 | 8638 ft | 278 kts | 310° |
| 2026-05-04 20:15 | 53.21724 | -1.98808 | 8363 ft | 274 kts | 310° |
| 2026-05-04 20:15 | 53.22973 | -2.01142 | 8196 ft | 264 kts | 317° |
| 2026-05-04 20:15 | 53.24504 | -2.02658 | 8056 ft | 254 kts | 343° |
| 2026-05-04 20:16 | 53.26257 | -2.02889 | 7990 ft | 252 kts | 2° |
| 2026-05-04 20:16 | 53.28006 | -2.02637 | 7505 ft | 258 kts | 4° |
| 2026-05-04 20:16 | 53.29788 | -2.02355 | 7177 ft | 256 kts | 4° |
| 2026-05-04 20:16 | 53.31554 | -2.02096 | 6854 ft | 254 kts | 3° |
| 2026-05-04 20:17 | 53.33309 | -2.01855 | 6528 ft | 252 kts | 3° |
| 2026-05-04 20:17 | 53.35057 | -2.01624 | 6168 ft | 251 kts | 3° |
| 2026-05-04 20:17 | 53.36791 | -2.01400 | 5787 ft | 249 kts | 3° |
| 2026-05-04 20:17 | 53.38506 | -2.01181 | 5461 ft | 244 kts | 3° |
| 2026-05-04 20:18 | 53.40166 | -2.00964 | 5268 ft | 233 kts | 3° |
| 2026-05-04 20:18 | 53.41740 | -2.00759 | 5087 ft | 221 kts | 4° |
| 2026-05-04 20:18 | 53.43162 | -2.00050 | 4874 ft | 211 kts | 32° |
| 2026-05-04 20:18 | 53.44213 | -1.98371 | 4531 ft | 208 kts | 51° |
| 2026-05-04 20:19 | 53.45029 | -1.96411 | 4153 ft | 207 kts | 54° |
| 2026-05-04 20:19 | 53.45820 | -1.94395 | 3768 ft | 205 kts | 55° |
| 2026-05-04 20:19 | 53.46698 | -1.92532 | 3510 ft | 203 kts | 34° |
| 2026-05-04 20:19 | 53.47983 | -1.91709 | 3481 ft | 199 kts | 0° |
| 2026-05-04 20:20 | 53.49301 | -1.92245 | 3486 ft | 197 kts | 326° |
| 2026-05-04 20:20 | 53.50146 | -1.93994 | 3487 ft | 198 kts | 286° |
| 2026-05-04 20:20 | 53.50095 | -1.96284 | 3498 ft | 201 kts | 252° |
| 2026-05-04 20:20 | 53.49467 | -1.98381 | 3503 ft | 202 kts | 238° |
| 2026-05-04 20:21 | 53.48589 | -2.00285 | 3507 ft | 204 kts | 230° |
| 2026-05-04 20:21 | 53.47696 | -2.02084 | 3503 ft | 202 kts | 232° |
| 2026-05-04 20:21 | 53.45912 | -2.05763 | 3341 ft | 202 kts | 233° |
| 2026-05-04 20:22 | 53.45032 | -2.07584 | 3099 ft | 200 kts | 233° |
| 2026-05-04 20:22 | 53.44154 | -2.09398 | 2833 ft | 200 kts | 233° |
| 2026-05-04 20:22 | 53.43279 | -2.11209 | 2571 ft | 200 kts | 233° |
| 2026-05-04 20:22 | 53.42422 | -2.12978 | 2338 ft | 190 kts | 233° |
| 2026-05-04 20:23 | 53.41602 | -2.14670 | 2077 ft | 183 kts | 234° |
| 2026-05-04 20:23 | 53.40825 | -2.16275 | 1810 ft | 173 kts | 234° |
| 2026-05-04 20:23 | 53.40086 | -2.17800 | 1577 ft | 163 kts | 234° |
| 2026-05-04 20:23 | 53.39397 | -2.19219 | 1350 ft | 149 kts | 234° |
| 2026-05-04 20:24 | 53.38765 | -2.20525 | 1134 ft | 145 kts | 234° |
| 2026-05-04 20:24 | 53.38127 | -2.21839 | 936 ft | 144 kts | 234° |
| 2026-05-04 20:24 | 53.37484 | -2.23124 | 750 ft | 144 kts | 233° |
| 2026-05-04 20:24 | 53.36859 | -2.24423 | 558 ft | 143 kts | 234° |
| 2026-05-04 20:25 | 53.36191 | -2.25793 | 363 ft | 166 kts | 233° |
| 2026-05-04 20:25 | 53.35495 | -2.27223 | 292 ft | 158 kts | 234° |
| 2026-05-04 20:25 | 53.34746 | -2.28818 | 813 ft | 188 kts | 234° |
| 2026-05-04 20:25 | 53.34084 | -2.30803 | 1686 ft | 204 kts | 257° |
| 2026-05-04 20:26 | 53.34188 | -2.33274 | 2072 ft | 230 kts | 296° |
| 2026-05-04 20:26 | 53.35219 | -2.35196 | 2817 ft | 226 kts | 328° |
| 2026-05-04 20:26 | 53.36806 | -2.36050 | 3187 ft | 243 kts | 346° |
| 2026-05-04 20:26 | 53.38381 | -2.36489 | 3374 ft | 222 kts | 1° |
| 2026-05-04 20:27 | 53.39869 | -2.35844 | 3477 ft | 224 kts | 26° |
| 2026-05-04 20:27 | 53.41196 | -2.34453 | 3519 ft | 225 kts | 32° |
| 2026-05-04 20:27 | 53.42051 | -2.33466 | 3528 ft | 225 kts | 34° |
| 2026-05-04 20:27 | 53.43259 | -2.31778 | 3527 ft | 228 kts | 46° |
| 2026-05-04 20:28 | 53.44247 | -2.29680 | 3512 ft | 228 kts | 51° |
| 2026-05-04 20:28 | 53.45191 | -2.27540 | 3457 ft | 224 kts | 52° |
| 2026-05-04 20:28 | 53.46090 | -2.25486 | 3305 ft | 212 kts | 52° |
| 2026-05-04 20:28 | 53.46931 | -2.23538 | 3135 ft | 206 kts | 52° |
| 2026-05-04 20:29 | 53.47765 | -2.21601 | 2864 ft | 203 kts | 52° |
| 2026-05-04 20:29 | 53.48595 | -2.19678 | 2927 ft | 203 kts | 52° |
| 2026-05-04 20:29 | 53.49434 | -2.17726 | 3172 ft | 218 kts | 52° |
| 2026-05-04 20:29 | 53.50334 | -2.15643 | 3458 ft | 211 kts | 52° |
| 2026-05-04 20:30 | 53.51194 | -2.13668 | 3519 ft | 209 kts | 52° |
| 2026-05-04 20:30 | 53.52045 | -2.11715 | 3520 ft | 209 kts | 52° |
| 2026-05-04 20:30 | 53.52900 | -2.09735 | 3512 ft | 209 kts | 52° |
| 2026-05-04 20:30 | 53.53680 | -2.07676 | 3495 ft | 210 kts | 69° |
| 2026-05-04 20:31 | 53.53801 | -2.05241 | 3493 ft | 212 kts | 103° |
| 2026-05-04 20:31 | 53.53148 | -2.03046 | 3498 ft | 212 kts | 128° |
| 2026-05-04 20:31 | 53.52054 | -2.01384 | 3507 ft | 212 kts | 144° |
| 2026-05-04 20:31 | 53.50825 | -2.00000 | 3479 ft | 212 kts | 156° |
| 2026-05-04 20:32 | 53.49423 | -1.99613 | 3394 ft | 209 kts | 194° |
| 2026-05-04 20:32 | 53.48180 | -2.00742 | 3301 ft | 205 kts | 225° |
| 2026-05-04 20:32 | 53.47250 | -2.02539 | 3217 ft | 203 kts | 235° |
| 2026-05-04 20:32 | 53.46418 | -2.04466 | 3184 ft | 203 kts | 236° |
| 2026-05-04 20:33 | 53.45574 | -2.06388 | 3168 ft | 204 kts | 234° |
| 2026-05-04 20:33 | 53.44707 | -2.08237 | 2975 ft | 200 kts | 233° |
| 2026-05-04 20:33 | 53.43836 | -2.10051 | 2722 ft | 199 kts | 233° |
| 2026-05-04 20:33 | 53.42973 | -2.11838 | 2473 ft | 199 kts | 233° |
| 2026-05-04 20:34 | 53.42091 | -2.13661 | 2200 ft | 195 kts | 233° |
| 2026-05-04 20:34 | 53.41261 | -2.15373 | 1957 ft | 183 kts | 234° |
| 2026-05-04 20:34 | 53.40482 | -2.16983 | 1705 ft | 173 kts | 234° |
| 2026-05-04 20:34 | 53.39758 | -2.18476 | 1485 ft | 162 kts | 234° |
| 2026-05-04 20:35 | 53.39074 | -2.19886 | 1246 ft | 149 kts | 234° |
| 2026-05-04 20:35 | 53.38431 | -2.21199 | 986 ft | 145 kts | 233° |
| 2026-05-04 20:35 | 53.37786 | -2.22493 | 821 ft | 144 kts | 234° |
| 2026-05-04 20:35 | 53.37162 | -2.23794 | 632 ft | 143 kts | 232° |
| 2026-05-04 20:36 | 53.36537 | -2.25077 | 412 ft | 142 kts | 234° |
| 2026-05-04 20:36 | 53.35922 | -2.26356 | 271 ft | 133 kts | 232° |
| 2026-05-04 20:36 | 53.35448 | -2.27346 | 252 ft | 80 kts | 231° |
| 2026-05-04 20:36 | 53.35212 | -2.27838 | 243 ft | 43 kts | 230° |
| 2026-05-04 20:37 | 53.35036 | -2.28205 | 238 ft | 34 kts | 232° |
| 2026-05-04 20:37 | 53.34957 | -2.28538 | 237 ft | 24 kts | 263° |
| 2026-05-04 20:37 | 53.34951 | -2.28610 | 234 ft | 5 kts | 260° |
| 2026-05-04 20:37 | 53.34954 | -2.28704 | 235 ft | 11 kts | 297° |
| 2026-05-04 20:38 | 53.35027 | -2.28713 | 234 ft | 5 kts | 46° |
| 2026-05-04 20:38 | 53.35033 | -2.28700 | 234 ft | 3 kts | 50° |
| 2026-05-04 20:38 | 53.35053 | -2.28661 | 234 ft | 6 kts | 50° |
| 2026-05-04 20:38 | 53.35084 | -2.28599 | 235 ft | 8 kts | 50° |
| 2026-05-04 20:39 | 53.35122 | -2.28522 | 233 ft | 9 kts | 51° |
| 2026-05-04 20:39 | 53.35166 | -2.28429 | 234 ft | 12 kts | 53° |
| 2026-05-04 20:39 | 53.35225 | -2.28313 | 237 ft | 15 kts | 47° |
| 2026-05-04 20:39 | 53.35313 | -2.28202 | 238 ft | 17 kts | 27° |
| 2026-05-04 20:40 | 53.35436 | -2.28154 | 241 ft | 19 kts | 11° |
| 2026-05-04 20:40 | 53.35555 | -2.28044 | 241 ft | 21 kts | 49° |
| 2026-05-04 20:40 | 53.35662 | -2.27885 | 248 ft | 22 kts | 4° |
| 2026-05-04 20:40 | 53.35753 | -2.27873 | 253 ft | 0 kts | 5° |
| 2026-05-04 20:43 | 53.35781 | -2.27868 | 254 ft | 7 kts | 6° |
| 2026-05-04 20:43 | 53.35842 | -2.27857 | 258 ft | 11 kts | 6° |
| 2026-05-04 20:43 | 53.35934 | -2.27855 | 261 ft | 15 kts | 347° |
| 2026-05-04 20:43 | 53.36027 | -2.27952 | 260 ft | 17 kts | 319° |
| 2026-05-04 20:44 | 53.36120 | -2.28093 | 260 ft | 19 kts | 315° |
| 2026-05-04 20:44 | 53.36219 | -2.28258 | 260 ft | 21 kts | 313° |
| 2026-05-04 20:44 | 53.36326 | -2.28439 | 260 ft | 15 kts | 317° |
| 2026-05-04 20:44 | 53.36397 | -2.28483 | 260 ft | 12 kts | 347° |
| 2026-05-04 20:45 | 53.36471 | -2.28575 | 260 ft | 15 kts | 315° |
| 2026-05-04 20:45 | 53.36550 | -2.28707 | 260 ft | 17 kts | 317° |
| 2026-05-04 20:45 | 53.36646 | -2.28757 | 260 ft | 12 kts | 43° |
| 2026-05-04 20:45 | 53.36711 | -2.28646 | 260 ft | 14 kts | 44° |
| 2026-05-04 20:46 | 53.36728 | -2.28618 | 260 ft | 2 kts | 45° |
| 2026-05-04 20:46 | 53.36741 | -2.28615 | 260 ft | 0 kts | 343° |
| 2026-05-04 20:46 | 53.36756 | -2.28626 | 260 ft | 5 kts | 336° |
| 2026-05-04 20:46 | 53.36786 | -2.28671 | 260 ft | 4 kts | 315° |
| 2026-05-04 20:47 | 53.36788 | -2.28675 | 260 ft | 0 kts | 315° |